createdAt,value
2019-02-19T00:02:14.538Z,65.26
2019-02-19T00:04:43.261Z,64.80
2019-02-19T00:07:11.938Z,64.32
2019-02-19T00:09:40.614Z,64.10
2019-02-19T00:12:09.291Z,64.13
2019-02-19T00:14:38.147Z,64.35
2019-02-19T00:17:06.822Z,64.54
2019-02-19T00:19:35.546Z,64.82
2019-02-19T00:22:04.716Z,65.25
2019-02-19T00:24:33.379Z,65.40
2019-02-19T00:27:02.066Z,65.17
2019-02-19T00:29:30.741Z,64.71
2019-02-19T00:31:59.407Z,64.99
2019-02-19T00:34:28.084Z,65.77
2019-02-19T00:36:56.761Z,66.57
2019-02-19T00:39:25.445Z,66.44
2019-02-19T00:41:54.156Z,66.51
2019-02-19T00:44:22.927Z,66.82
2019-02-19T00:46:51.667Z,67.00
2019-02-19T00:49:20.348Z,67.09
2019-02-19T00:51:49.022Z,67.06
2019-02-19T00:54:17.689Z,67.01
2019-02-19T00:56:46.467Z,66.88
2019-02-19T00:59:15.184Z,66.91
2019-02-19T01:01:44.007Z,66.74
2019-02-19T01:04:12.651Z,66.84
2019-02-19T01:06:41.331Z,66.26
2019-02-19T01:09:10.136Z,66.08
2019-02-19T01:11:38.766Z,66.59
2019-02-19T01:14:07.551Z,66.79
2019-02-19T01:16:36.220Z,67.28
2019-02-19T01:19:04.893Z,67.89
2019-02-19T01:21:33.571Z,67.73
2019-02-19T01:24:02.239Z,67.80
2019-02-19T01:26:30.940Z,67.83
2019-02-19T01:28:59.791Z,67.74
2019-02-19T01:31:28.477Z,68.21
2019-02-19T01:33:57.140Z,68.42
2019-02-19T01:36:25.815Z,68.25
2019-02-19T01:38:54.494Z,68.05
2019-02-19T01:41:23.264Z,67.84
2019-02-19T01:43:51.934Z,67.58
2019-02-19T01:46:20.615Z,67.48
2019-02-19T01:48:49.293Z,67.43
2019-02-19T01:51:17.948Z,68.40
2019-02-19T01:53:46.627Z,68.64
2019-02-19T01:56:15.311Z,68.71
2019-02-19T01:58:44.093Z,68.39
2019-02-19T02:01:12.836Z,68.23
2019-02-19T02:03:41.496Z,68.72
2019-02-19T02:06:10.175Z,68.80
2019-02-19T02:08:38.854Z,68.40
2019-02-19T02:11:07.516Z,68.32
2019-02-19T02:13:36.403Z,68.34
2019-02-19T02:16:05.090Z,68.52
2019-02-19T02:18:33.766Z,68.67
2019-02-19T02:21:02.452Z,68.69
2019-02-19T02:23:31.133Z,68.70
2019-02-19T02:25:59.798Z,68.57
2019-02-19T02:28:28.471Z,68.07
2019-02-19T02:30:57.145Z,67.87
2019-02-19T02:33:26.020Z,67.67
2019-02-19T02:35:54.716Z,67.87
2019-02-19T02:38:23.367Z,67.88
2019-02-19T02:40:52.030Z,67.78
2019-02-19T02:43:20.694Z,67.93
2019-02-19T02:45:53.547Z,68.27
2019-02-19T02:48:19.840Z,67.77
2019-02-19T02:50:48.501Z,68.01
2019-02-19T02:53:17.168Z,67.68
2019-02-19T02:55:45.832Z,67.72
2019-02-19T02:58:14.499Z,67.86
2019-02-19T03:00:43.168Z,67.98
2019-02-19T03:03:11.967Z,67.59
2019-02-19T03:05:43.658Z,68.17
2019-02-19T03:08:12.336Z,68.33
2019-02-19T03:10:41.023Z,68.73
2019-02-19T03:13:09.693Z,68.68
2019-02-19T03:15:38.368Z,68.95
2019-02-19T03:18:07.066Z,69.02
2019-02-19T03:20:35.758Z,68.91
2019-02-19T03:23:04.434Z,69.05
2019-02-19T03:25:33.091Z,69.02
2019-02-19T03:28:01.779Z,69.14
2019-02-19T03:30:30.437Z,69.13
2019-02-19T03:32:59.118Z,69.09
2019-02-19T03:35:27.794Z,68.85
2019-02-19T03:37:56.470Z,69.05
2019-02-19T03:40:25.141Z,69.29
2019-02-19T03:42:54.011Z,69.16
2019-02-19T03:45:22.670Z,69.19
2019-02-19T03:47:51.348Z,68.75
2019-02-19T03:50:20.013Z,68.32
2019-02-19T03:52:48.950Z,68.00
2019-02-19T03:55:17.615Z,68.12
2019-02-19T03:57:46.376Z,68.53
2019-02-19T04:00:15.035Z,68.45
2019-02-19T04:02:43.871Z,68.50
2019-02-19T04:05:12.681Z,68.40
2019-02-19T04:07:41.403Z,68.07
2019-02-19T04:10:10.084Z,67.97
2019-02-19T04:12:38.754Z,67.92
2019-02-19T04:15:08.361Z,67.02
2019-02-19T04:17:37.030Z,67.55
2019-02-19T04:20:09.396Z,67.66
2019-02-19T04:22:38.162Z,68.02
2019-02-19T04:25:06.935Z,68.12
2019-02-19T04:27:35.604Z,67.62
2019-02-19T04:30:05.566Z,67.99
2019-02-19T04:32:34.232Z,67.84
2019-02-19T04:35:02.911Z,68.23
2019-02-19T04:37:31.572Z,68.42
2019-02-19T04:40:00.349Z,68.87
2019-02-19T04:42:28.983Z,68.91
2019-02-19T04:44:57.777Z,69.05
2019-02-19T04:47:26.445Z,69.53
2019-02-19T04:49:55.115Z,69.48
2019-02-19T04:52:23.928Z,69.52
2019-02-19T04:54:52.597Z,69.28
2019-02-19T04:57:21.308Z,69.17
2019-02-19T04:59:50.260Z,69.45
2019-02-19T05:02:18.968Z,69.63
2019-02-19T05:04:47.616Z,69.75
2019-02-19T05:07:16.342Z,69.94
2019-02-19T05:09:44.989Z,69.97
2019-02-19T05:12:13.651Z,69.76
2019-02-19T05:14:42.338Z,69.73
2019-02-19T05:17:11.002Z,69.58
2019-02-19T05:19:39.730Z,69.55
2019-02-19T05:22:08.397Z,69.62
2019-02-19T05:24:37.059Z,69.63
2019-02-19T05:27:05.731Z,70.12
2019-02-19T05:29:36.947Z,69.98
2019-02-19T05:32:05.666Z,69.99
2019-02-19T05:34:34.326Z,70.04
2019-02-19T05:37:02.999Z,70.00
2019-02-19T05:39:31.679Z,69.40
2019-02-19T05:42:00.334Z,69.71
2019-02-19T05:44:29.007Z,69.21
2019-02-19T05:46:57.680Z,69.26
2019-02-19T05:49:26.336Z,69.40
2019-02-19T05:51:55.008Z,69.33
2019-02-19T05:54:23.746Z,68.80
2019-02-19T05:56:52.434Z,68.20
2019-02-19T05:59:21.122Z,67.91
2019-02-19T06:01:49.886Z,67.46
2019-02-19T06:04:18.943Z,67.58
2019-02-19T06:06:47.641Z,67.62
2019-02-19T06:09:16.309Z,66.75
2019-02-19T06:11:44.971Z,66.67
2019-02-19T06:14:13.694Z,66.68
2019-02-19T06:16:42.418Z,66.10
2019-02-19T06:19:11.096Z,65.19
2019-02-19T06:21:40.076Z,64.73
2019-02-19T06:24:08.932Z,64.80
2019-02-19T06:26:37.616Z,64.83
2019-02-19T06:29:06.278Z,63.09
2019-02-19T06:31:35.054Z,61.53
2019-02-19T06:34:03.818Z,59.55
2019-02-19T06:36:32.502Z,59.04
2019-02-19T06:39:01.471Z,59.01
2019-02-19T06:41:30.164Z,59.54
2019-02-19T06:43:58.843Z,60.24
2019-02-19T06:46:29.315Z,60.32
2019-02-19T06:48:57.931Z,59.87
2019-02-19T06:51:26.792Z,59.82
2019-02-19T06:53:55.839Z,60.06
2019-02-19T06:56:25.101Z,59.22
2019-02-19T06:58:54.524Z,59.43
2019-02-19T07:01:24.952Z,59.48
2019-02-19T07:03:55.198Z,59.61
2019-02-19T07:06:23.911Z,59.29
2019-02-19T07:08:52.875Z,59.25
2019-02-19T07:11:21.630Z,58.93
2019-02-19T07:13:50.541Z,58.95
2019-02-19T07:16:19.353Z,57.50
2019-02-19T07:18:48.580Z,57.99
2019-02-19T07:21:17.431Z,58.12
2019-02-19T07:23:46.213Z,58.32
2019-02-19T07:26:14.938Z,57.63
2019-02-19T07:28:43.831Z,56.95
2019-02-19T07:31:14.327Z,56.88
2019-02-19T07:33:43.017Z,56.42
2019-02-19T07:36:11.955Z,56.03
2019-02-19T07:38:40.666Z,55.85
2019-02-19T07:41:09.513Z,55.08
2019-02-19T07:43:38.820Z,55.49
2019-02-19T07:46:07.900Z,54.36
2019-02-19T07:48:40.245Z,53.48
2019-02-19T07:51:09.273Z,52.39
2019-02-19T07:53:38.076Z,51.56
2019-02-19T07:56:06.988Z,51.85
2019-02-19T07:58:36.090Z,51.53
2019-02-19T08:01:04.921Z,51.92
2019-02-19T08:03:33.704Z,51.90
2019-02-19T08:06:02.989Z,51.88
2019-02-19T08:08:32.128Z,51.47
2019-02-19T08:11:01.177Z,51.83
2019-02-19T08:13:30.121Z,51.46
2019-02-19T08:15:59.046Z,51.26
2019-02-19T08:18:27.740Z,51.39
2019-02-19T08:20:56.431Z,51.70
2019-02-19T08:23:25.444Z,51.26
2019-02-19T08:25:54.120Z,51.64
2019-02-19T08:28:23.024Z,50.90
2019-02-19T08:30:51.788Z,50.89
2019-02-19T08:33:20.501Z,50.01
2019-02-19T08:35:49.317Z,49.71
2019-02-19T08:38:18.348Z,49.58
2019-02-19T08:40:47.563Z,49.26
2019-02-19T08:43:16.255Z,49.02
2019-02-19T08:45:45.247Z,49.98
2019-02-19T08:48:14.410Z,49.51
2019-02-19T08:50:43.372Z,48.88
2019-02-19T08:53:12.521Z,48.71
2019-02-19T08:55:42.050Z,48.06
2019-02-19T08:58:10.852Z,47.89
2019-02-19T09:00:39.604Z,47.11
2019-02-19T09:03:08.320Z,46.59
2019-02-19T09:05:37.089Z,46.37
2019-02-19T09:08:05.949Z,46.19
2019-02-19T09:10:35.124Z,46.20
2019-02-19T09:13:04.475Z,45.86
2019-02-19T09:15:33.426Z,45.50
2019-02-19T09:18:02.372Z,45.72
2019-02-19T09:20:31.193Z,44.62
2019-02-19T09:22:59.882Z,44.61
2019-02-19T09:25:29.221Z,44.29
2019-02-19T09:27:57.909Z,44.30
2019-02-19T09:30:26.920Z,43.66
2019-02-19T09:32:55.844Z,43.28
2019-02-19T09:35:24.953Z,38.40
2019-02-19T09:37:53.848Z,29.97
2019-02-19T09:40:23.285Z,24.34
2019-02-19T09:42:56.478Z,21.66
2019-02-19T09:45:25.534Z,19.37
2019-02-19T09:48:01.032Z,20.97
2019-02-19T09:50:25.144Z,20.27
2019-02-19T09:52:59.800Z,18.09
2019-02-19T09:55:24.928Z,16.43
2019-02-19T10:00:22.222Z,16.01
2019-02-19T10:02:50.953Z,15.47
2019-02-19T10:05:19.889Z,16.64
2019-02-19T10:07:48.663Z,16.83
2019-02-19T10:10:19.964Z,17.32
2019-02-19T10:12:49.319Z,17.06
2019-02-19T10:15:18.221Z,17.53
2019-02-19T10:17:46.969Z,18.40
2019-02-19T10:20:16.288Z,19.29
2019-02-19T10:22:45.174Z,23.74
2019-02-19T10:25:15.551Z,26.45
2019-02-19T10:27:44.284Z,27.85
2019-02-19T10:30:17.922Z,29.61
2019-02-19T10:32:46.714Z,29.86
2019-02-19T10:35:15.382Z,31.05
2019-02-19T10:37:45.778Z,31.68
2019-02-19T10:40:27.231Z,31.89
2019-02-19T10:42:56.005Z,32.44
2019-02-19T10:45:26.258Z,29.18
2019-02-19T10:47:55.077Z,25.16
2019-02-19T10:50:24.202Z,23.08
2019-02-19T10:52:53.618Z,20.06
2019-02-19T10:55:22.763Z,18.20
2019-02-19T10:57:52.600Z,17.46
2019-02-19T11:00:23.674Z,15.93
2019-02-19T11:02:52.785Z,14.52
2019-02-19T11:05:22.123Z,13.88
2019-02-19T11:07:53.657Z,14.24
2019-02-19T11:10:22.772Z,13.55
2019-02-19T11:12:51.659Z,13.52
2019-02-19T11:15:22.546Z,14.16
2019-02-19T11:17:51.227Z,13.79
2019-02-19T11:20:22.611Z,12.62
2019-02-19T11:22:51.523Z,13.22
2019-02-19T11:25:20.234Z,13.65
2019-02-19T11:27:49.334Z,14.94
2019-02-19T11:30:20.611Z,13.87
2019-02-19T11:32:50.074Z,13.02
2019-02-19T11:35:19.148Z,13.16
2019-02-19T11:37:48.296Z,13.21
2019-02-19T11:40:20.047Z,13.75
2019-02-19T11:42:50.262Z,14.45
2019-02-19T11:45:20.591Z,14.11
2019-02-19T11:47:49.939Z,15.19
2019-02-19T11:50:18.769Z,15.58
2019-02-19T11:52:47.702Z,14.07
2019-02-19T11:55:18.523Z,13.09
2019-02-19T11:57:47.524Z,13.51
2019-02-19T12:00:21.446Z,12.79
2019-02-19T12:02:50.433Z,11.78
2019-02-19T12:05:20.451Z,12.50
2019-02-19T12:07:49.241Z,12.40
2019-02-19T12:10:18.193Z,12.49
2019-02-19T12:12:47.075Z,12.80
2019-02-19T12:15:16.088Z,12.67
2019-02-19T12:17:44.804Z,12.57
2019-02-19T12:20:14.740Z,12.47
2019-02-19T12:22:43.589Z,12.63
2019-02-19T12:25:12.559Z,12.15
2019-02-19T12:27:41.222Z,11.98
2019-02-19T12:30:20.866Z,12.92
2019-02-19T12:32:51.345Z,12.72
2019-02-19T12:35:20.155Z,12.29
2019-02-19T12:37:49.009Z,12.41
2019-02-19T12:40:17.785Z,12.29
2019-02-19T12:42:46.724Z,12.32
2019-02-19T12:45:16.432Z,12.77
2019-02-19T12:47:45.315Z,12.19
2019-02-19T12:50:18.969Z,12.32
2019-02-19T12:52:47.884Z,12.53
2019-02-19T12:55:17.330Z,12.52
2019-02-19T12:57:46.125Z,12.53
2019-02-19T13:00:18.832Z,12.15
2019-02-19T13:02:48.126Z,12.25
2019-02-19T13:05:17.473Z,14.14
2019-02-19T13:07:47.048Z,14.20
2019-02-19T13:10:16.085Z,14.28
2019-02-19T13:12:44.867Z,15.03
2019-02-19T13:15:15.945Z,13.73
2019-02-19T13:17:45.120Z,13.29
2019-02-19T13:20:15.133Z,12.90
2019-02-19T13:22:43.915Z,12.89
2019-02-19T13:25:13.009Z,12.88
2019-02-19T13:27:41.826Z,12.92
2019-02-19T13:30:13.420Z,12.76
2019-02-19T13:32:42.478Z,12.75
2019-02-19T13:35:12.526Z,13.21
2019-02-19T13:37:41.605Z,13.17
2019-02-19T13:40:13.446Z,13.06
2019-02-19T13:42:42.178Z,13.19
2019-02-19T13:45:15.786Z,13.23
2019-02-19T13:47:44.459Z,13.00
2019-02-19T13:50:22.626Z,12.91
2019-02-19T13:52:53.352Z,13.28
2019-02-19T13:55:23.852Z,13.25
2019-02-19T13:57:53.216Z,14.04
2019-02-19T14:00:24.005Z,14.01
2019-02-19T14:02:52.666Z,14.35
2019-02-19T14:05:21.629Z,14.92
2019-02-19T14:07:50.278Z,15.62
2019-02-19T14:10:19.107Z,15.19
2019-02-19T14:12:48.092Z,14.44
2019-02-19T14:15:21.498Z,14.26
2019-02-19T14:17:50.282Z,13.79
2019-02-19T14:20:23.810Z,14.12
2019-02-19T14:22:57.013Z,14.61
2019-02-19T14:25:27.415Z,14.90
2019-02-19T14:28:14.548Z,15.94
2019-02-19T14:30:45.984Z,15.95
2019-02-19T14:33:32.578Z,15.23
2019-02-19T14:36:21.751Z,15.32
2019-02-19T14:38:54.871Z,14.65
2019-02-19T14:41:40.850Z,14.73
2019-02-19T14:44:13.845Z,16.84
2019-02-19T14:46:44.230Z,19.01
2019-02-19T14:49:37.114Z,20.81
2019-02-19T14:52:14.354Z,22.27
2019-02-19T14:55:01.294Z,23.55
2019-02-19T14:57:32.066Z,24.70
2019-02-19T15:00:18.615Z,25.29
2019-02-19T15:02:51.738Z,26.11
2019-02-19T15:05:37.401Z,27.44
2019-02-19T15:08:08.632Z,28.07
2019-02-19T15:10:38.931Z,28.54
2019-02-19T15:13:09.286Z,28.97
2019-02-19T15:15:51.684Z,29.69
2019-02-19T15:18:22.145Z,30.10
2019-02-19T15:20:52.429Z,30.92
2019-02-19T15:23:28.634Z,31.57
2019-02-19T15:26:02.105Z,31.97
2019-02-19T15:28:35.684Z,32.57
2019-02-19T15:31:24.845Z,32.96
2019-02-19T15:34:07.401Z,34.69
2019-02-19T15:36:38.080Z,36.24
2019-02-19T15:39:24.996Z,37.35
2019-02-19T15:42:01.059Z,37.99
2019-02-19T15:44:37.591Z,38.64
2019-02-19T15:47:24.785Z,39.38
2019-02-19T15:50:01.187Z,39.76
2019-02-19T15:52:37.844Z,39.81
2019-02-19T15:55:08.538Z,40.61
2019-02-19T15:57:42.021Z,40.70
2019-02-19T16:00:30.433Z,41.16
2019-02-19T16:03:10.007Z,41.55
2019-02-19T16:05:43.022Z,42.08
2019-02-19T16:08:18.976Z,42.59
2019-02-19T16:10:49.506Z,42.80
2019-02-19T16:13:19.798Z,43.32
2019-02-19T16:16:08.079Z,43.22
2019-02-19T16:18:54.739Z,43.65
2019-02-19T16:21:31.126Z,43.47
2019-02-19T16:24:10.697Z,43.38
2019-02-19T16:26:43.869Z,43.25
2019-02-19T16:29:26.170Z,42.17
2019-02-19T16:32:05.481Z,42.26
2019-02-19T16:34:41.737Z,41.85
2019-02-19T16:37:18.097Z,41.42
2019-02-19T16:40:00.651Z,40.65
2019-02-19T16:42:36.895Z,40.59
2019-02-19T16:45:12.290Z,40.49
2019-02-19T16:47:45.658Z,40.38
2019-02-19T16:50:18.669Z,40.31
2019-02-19T16:52:51.685Z,40.03
2019-02-19T16:55:27.711Z,40.04
2019-02-19T16:58:07.284Z,39.98
2019-02-19T17:00:53.967Z,40.07
2019-02-19T17:03:33.267Z,40.04
2019-02-19T17:06:04.429Z,39.90
2019-02-19T17:08:34.649Z,39.98
2019-02-19T17:11:13.863Z,40.26
2019-02-19T17:13:44.122Z,40.01
2019-02-19T17:16:23.447Z,40.21
2019-02-19T17:19:02.694Z,40.42
2019-02-19T17:21:42.368Z,40.71
2019-02-19T17:24:18.703Z,40.35
2019-02-19T17:26:48.982Z,40.69
2019-02-19T17:29:35.401Z,40.74
2019-02-19T17:32:17.608Z,40.38
2019-02-19T17:35:04.351Z,41.12
2019-02-19T17:37:50.805Z,41.48
2019-02-19T17:40:37.414Z,41.68
2019-02-19T17:43:14.351Z,41.66
2019-02-19T17:45:44.609Z,41.95
2019-02-19T17:48:26.835Z,42.23
2019-02-19T17:51:03.275Z,42.25
2019-02-19T17:53:37.299Z,42.00
2019-02-19T17:56:07.536Z,41.67
2019-02-19T17:58:46.771Z,41.69
2019-02-19T18:01:32.216Z,42.09
2019-02-19T18:04:08.556Z,42.36
2019-02-19T18:06:50.871Z,43.11
2019-02-19T18:09:21.126Z,43.40
2019-02-19T18:12:00.239Z,43.02
2019-02-19T18:14:33.505Z,42.28
2019-02-19T18:17:12.474Z,41.85
2019-02-19T18:19:41.153Z,41.83
2019-02-19T18:22:09.820Z,42.06
2019-02-19T18:24:38.533Z,42.80
2019-02-19T18:27:07.189Z,43.48
2019-02-19T18:29:35.907Z,44.16
2019-02-19T18:32:04.529Z,44.35
2019-02-19T18:34:33.296Z,44.43
2019-02-19T18:37:01.974Z,44.99
2019-02-19T18:39:30.665Z,45.18
2019-02-19T18:41:59.326Z,44.94
2019-02-19T18:44:28.049Z,45.44
2019-02-19T18:46:56.741Z,46.27
2019-02-19T18:49:25.501Z,45.93
2019-02-19T18:51:54.435Z,45.26
2019-02-19T18:54:23.253Z,43.71
2019-02-19T18:56:51.900Z,43.90
2019-02-19T18:59:20.568Z,44.75
2019-02-19T19:01:49.296Z,44.72
2019-02-19T19:04:18.061Z,44.83
2019-02-19T19:06:46.751Z,45.04
2019-02-19T19:09:15.440Z,46.43
2019-02-19T19:11:44.297Z,46.31
2019-02-19T19:14:13.151Z,46.46
2019-02-19T19:16:41.866Z,47.07
2019-02-19T19:19:10.500Z,47.09
2019-02-19T19:21:39.175Z,48.01
2019-02-19T19:24:08.353Z,48.52
2019-02-19T19:26:37.042Z,49.81
2019-02-19T19:29:05.706Z,49.63
2019-02-19T19:31:34.399Z,50.15
2019-02-19T19:34:03.077Z,50.60
2019-02-19T19:36:31.764Z,50.91
2019-02-19T19:39:00.435Z,51.10
2019-02-19T19:41:29.112Z,51.05
2019-02-19T19:43:57.789Z,50.96
2019-02-19T19:46:26.503Z,51.95
2019-02-19T19:48:55.192Z,52.65
2019-02-19T19:51:23.853Z,53.31
2019-02-19T19:53:52.542Z,53.29
2019-02-19T19:56:21.374Z,53.20
2019-02-19T19:58:50.040Z,53.96
2019-02-19T20:01:18.855Z,53.42
2019-02-19T20:03:47.787Z,53.36
2019-02-19T20:06:16.513Z,53.49
2019-02-19T20:08:45.465Z,53.74
2019-02-19T20:11:14.151Z,53.80
2019-02-19T20:13:42.872Z,55.72
2019-02-19T20:16:11.661Z,55.61
2019-02-19T20:18:40.559Z,55.04
2019-02-19T20:21:09.240Z,54.78
2019-02-19T20:23:37.951Z,53.89
2019-02-19T20:26:06.616Z,54.20
2019-02-19T20:28:37.187Z,54.84
2019-02-19T20:31:05.866Z,55.93
2019-02-19T20:33:34.542Z,56.25
2019-02-19T20:36:03.563Z,56.00
2019-02-19T20:38:32.395Z,55.59
2019-02-19T20:41:01.386Z,55.16
2019-02-19T20:43:30.172Z,55.78
2019-02-19T20:45:59.053Z,55.31
2019-02-19T20:48:27.749Z,54.79
2019-02-19T20:50:56.734Z,54.61
2019-02-19T20:53:25.487Z,54.45
2019-02-19T20:55:54.338Z,54.50
2019-02-19T20:58:23.303Z,55.38
2019-02-19T21:00:53.332Z,55.41
2019-02-19T21:03:25.283Z,55.13
2019-02-19T21:05:54.278Z,55.91
2019-02-19T21:08:23.376Z,56.61
2019-02-19T21:10:52.272Z,56.77
2019-02-19T21:13:21.584Z,56.20
2019-02-19T21:15:50.579Z,56.59
2019-02-19T21:18:19.455Z,56.11
2019-02-19T21:20:48.740Z,56.03
2019-02-19T21:23:17.592Z,57.23
2019-02-19T21:25:46.749Z,56.95
2019-02-19T21:28:15.597Z,56.90
2019-02-19T21:30:45.465Z,57.26
2019-02-19T21:33:15.074Z,57.63
2019-02-19T21:35:43.915Z,58.17
2019-02-19T21:38:12.822Z,59.02
2019-02-19T21:40:41.776Z,59.47
2019-02-19T21:43:10.748Z,60.18
2019-02-19T21:45:40.379Z,59.99
2019-02-19T21:48:09.265Z,61.22
2019-02-19T21:50:38.176Z,61.29
2019-02-19T21:53:07.242Z,61.14
2019-02-19T21:55:36.340Z,60.78
2019-02-19T21:58:05.435Z,60.47
2019-02-19T22:00:34.328Z,59.11
2019-02-19T22:03:03.322Z,59.30
2019-02-19T22:05:32.237Z,59.04
2019-02-19T22:08:01.224Z,58.48
2019-02-19T22:10:30.049Z,57.96
2019-02-19T22:12:59.098Z,57.99
2019-02-19T22:15:28.003Z,58.06
2019-02-19T22:17:56.990Z,57.55
2019-02-19T22:20:43.497Z,57.19
2019-02-19T22:23:12.507Z,57.49
2019-02-19T22:25:41.386Z,57.50
2019-02-19T22:28:10.383Z,57.56
2019-02-19T22:30:39.475Z,57.82
2019-02-19T22:33:08.879Z,58.47
2019-02-19T22:35:37.979Z,58.67
2019-02-19T22:38:06.879Z,58.31
2019-02-19T22:40:35.971Z,58.65
2019-02-19T22:43:05.075Z,58.61
2019-02-19T22:45:33.969Z,59.20
2019-02-19T22:48:02.805Z,59.58
2019-02-19T22:50:31.763Z,59.44
2019-02-19T22:53:00.871Z,59.55
2019-02-19T22:55:37.117Z,59.45
2019-02-19T22:58:06.213Z,59.70
2019-02-19T23:00:49.455Z,58.98
2019-02-19T23:03:19.863Z,59.32
2019-02-19T23:05:48.770Z,59.62
2019-02-19T23:08:17.620Z,59.09
2019-02-19T23:10:46.563Z,59.69
2019-02-19T23:13:15.804Z,60.28
2019-02-19T23:15:45.462Z,60.99
2019-02-19T23:18:14.547Z,61.06
2019-02-19T23:20:43.453Z,61.11
2019-02-19T23:23:12.459Z,61.15
2019-02-19T23:25:41.549Z,62.18
2019-02-19T23:28:10.543Z,61.72
2019-02-19T23:30:39.442Z,61.10
2019-02-19T23:33:08.643Z,60.75
2019-02-19T23:35:41.867Z,61.14
2019-02-19T23:38:10.827Z,61.99
2019-02-19T23:40:39.719Z,62.34
2019-02-19T23:43:08.621Z,62.70
2019-02-19T23:45:37.611Z,62.85
2019-02-19T23:48:06.503Z,62.82
2019-02-19T23:50:35.407Z,62.69
2019-02-19T23:53:04.403Z,62.86
2019-02-19T23:55:33.490Z,63.39
2019-02-19T23:58:02.384Z,63.04
